sensor_id;sensor_type;location;lat;lon;timestamp;P1;durP1;ratioP1;P2;durP2;ratioP2
15443;SDS011;7822;48.146;11.576;2022-08-03T00:00:29;3.92;;;2.50;;
15443;SDS011;7822;48.146;11.576;2022-08-03T00:02:56;2.42;;;2.10;;
15443;SDS011;7822;48.146;11.576;2022-08-03T00:05:24;2.33;;;2.13;;
15443;SDS011;7822;48.146;11.576;2022-08-03T00:07:52;2.35;;;1.92;;
15443;SDS011;7822;48.146;11.576;2022-08-03T00:10:21;4.07;;;2.10;;
15443;SDS011;7822;48.146;11.576;2022-08-03T00:12:50;1.77;;;1.67;;
15443;SDS011;7822;48.146;11.576;2022-08-03T00:15:17;3.53;;;2.30;;
15443;SDS011;7822;48.146;11.576;2022-08-03T00:17:45;1.90;;;1.70;;
15443;SDS011;7822;48.146;11.576;2022-08-03T00:20:19;2.40;;;1.80;;
15443;SDS011;7822;48.146;11.576;2022-08-03T00:22:47;3.17;;;1.80;;
15443;SDS011;7822;48.146;11.576;2022-08-03T00:25:15;2.83;;;2.53;;
15443;SDS011;7822;48.146;11.576;2022-08-03T00:27:42;4.18;;;2.10;;
15443;SDS011;7822;48.146;11.576;2022-08-03T00:30:14;2.30;;;1.80;;
15443;SDS011;7822;48.146;11.576;2022-08-03T00:32:42;2.65;;;1.75;;
15443;SDS011;7822;48.146;11.576;2022-08-03T00:35:10;3.08;;;2.03;;
15443;SDS011;7822;48.146;11.576;2022-08-03T00:37:58;2.30;;;2.10;;
15443;SDS011;7822;48.146;11.576;2022-08-03T00:40:26;2.15;;;1.92;;
15443;SDS011;7822;48.146;11.576;2022-08-03T00:42:55;2.22;;;2.03;;
15443;SDS011;7822;48.146;11.576;2022-08-03T00:45:25;2.38;;;2.00;;
15443;SDS011;7822;48.146;11.576;2022-08-03T00:47:56;2.05;;;1.90;;
15443;SDS011;7822;48.146;11.576;2022-08-03T00:50:24;1.88;;;1.77;;
15443;SDS011;7822;48.146;11.576;2022-08-03T00:52:54;3.58;;;1.52;;
15443;SDS011;7822;48.146;11.576;2022-08-03T00:55:23;2.75;;;1.67;;
15443;SDS011;7822;48.146;11.576;2022-08-03T00:57:51;4.22;;;1.80;;
15443;SDS011;7822;48.146;11.576;2022-08-03T01:00:20;2.60;;;2.35;;
15443;SDS011;7822;48.146;11.576;2022-08-03T01:02:50;3.53;;;2.55;;
15443;SDS011;7822;48.146;11.576;2022-08-03T01:05:19;2.92;;;2.63;;
15443;SDS011;7822;48.146;11.576;2022-08-03T01:07:55;4.15;;;2.80;;
15443;SDS011;7822;48.146;11.576;2022-08-03T01:10:35;2.50;;;2.30;;
15443;SDS011;7822;48.146;11.576;2022-08-03T01:13:11;3.55;;;2.88;;
15443;SDS011;7822;48.146;11.576;2022-08-03T01:16:08;3.28;;;2.25;;
15443;SDS011;7822;48.146;11.576;2022-08-03T01:18:44;3.47;;;2.70;;
15443;SDS011;7822;48.146;11.576;2022-08-03T01:21:19;4.35;;;2.30;;
15443;SDS011;7822;48.146;11.576;2022-08-03T01:23:58;3.35;;;2.60;;
15443;SDS011;7822;48.146;11.576;2022-08-03T01:26:46;3.28;;;2.75;;
15443;SDS011;7822;48.146;11.576;2022-08-03T01:29:32;2.65;;;2.38;;
15443;SDS011;7822;48.146;11.576;2022-08-03T01:32:12;2.72;;;1.98;;
15443;SDS011;7822;48.146;11.576;2022-08-03T01:35:04;2.47;;;1.80;;
15443;SDS011;7822;48.146;11.576;2022-08-03T01:37:37;2.00;;;1.80;;
15443;SDS011;7822;48.146;11.576;2022-08-03T01:40:09;1.85;;;1.50;;
15443;SDS011;7822;48.146;11.576;2022-08-03T01:42:40;1.90;;;1.50;;
15443;SDS011;7822;48.146;11.576;2022-08-03T01:45:11;1.52;;;1.35;;
15443;SDS011;7822;48.146;11.576;2022-08-03T01:47:43;1.80;;;1.70;;
15443;SDS011;7822;48.146;11.576;2022-08-03T01:50:12;1.50;;;1.40;;
15443;SDS011;7822;48.146;11.576;2022-08-03T01:52:43;1.30;;;1.20;;
15443;SDS011;7822;48.146;11.576;2022-08-03T01:55:12;2.85;;;1.50;;
15443;SDS011;7822;48.146;11.576;2022-08-03T01:57:43;1.80;;;1.70;;
15443;SDS011;7822;48.146;11.576;2022-08-03T02:00:33;1.83;;;1.55;;
15443;SDS011;7822;48.146;11.576;2022-08-03T02:03:03;1.52;;;1.42;;
15443;SDS011;7822;48.146;11.576;2022-08-03T02:05:33;1.98;;;1.42;;
15443;SDS011;7822;48.146;11.576;2022-08-03T02:08:02;1.45;;;1.27;;
15443;SDS011;7822;48.146;11.576;2022-08-03T02:10:33;1.55;;;1.40;;
15443;SDS011;7822;48.146;11.576;2022-08-03T02:13:03;1.58;;;1.48;;
15443;SDS011;7822;48.146;11.576;2022-08-03T02:15:35;1.52;;;1.42;;
15443;SDS011;7822;48.146;11.576;2022-08-03T02:18:04;1.48;;;1.38;;
15443;SDS011;7822;48.146;11.576;2022-08-03T02:20:35;1.40;;;1.30;;
15443;SDS011;7822;48.146;11.576;2022-08-03T02:23:04;1.33;;;1.30;;
15443;SDS011;7822;48.146;11.576;2022-08-03T02:25:33;1.55;;;1.45;;
15443;SDS011;7822;48.146;11.576;2022-08-03T02:28:05;1.50;;;1.40;;
15443;SDS011;7822;48.146;11.576;2022-08-03T02:30:37;1.60;;;1.50;;
15443;SDS011;7822;48.146;11.576;2022-08-03T02:33:09;1.27;;;1.13;;
15443;SDS011;7822;48.146;11.576;2022-08-03T02:35:40;1.65;;;1.52;;
15443;SDS011;7822;48.146;11.576;2022-08-03T02:38:10;1.92;;;1.58;;
15443;SDS011;7822;48.146;11.576;2022-08-03T02:40:40;1.58;;;1.48;;
15443;SDS011;7822;48.146;11.576;2022-08-03T02:43:12;1.60;;;1.50;;
15443;SDS011;7822;48.146;11.576;2022-08-03T02:45:46;1.60;;;1.50;;
15443;SDS011;7822;48.146;11.576;2022-08-03T02:48:16;1.75;;;1.60;;
15443;SDS011;7822;48.146;11.576;2022-08-03T02:50:48;1.95;;;1.35;;
15443;SDS011;7822;48.146;11.576;2022-08-03T02:53:22;1.83;;;1.65;;
15443;SDS011;7822;48.146;11.576;2022-08-03T02:55:50;1.30;;;1.20;;
15443;SDS011;7822;48.146;11.576;2022-08-03T02:58:20;2.20;;;1.58;;
15443;SDS011;7822;48.146;11.576;2022-08-03T03:00:52;1.50;;;1.40;;
15443;SDS011;7822;48.146;11.576;2022-08-03T03:03:21;1.60;;;1.50;;
15443;SDS011;7822;48.146;11.576;2022-08-03T03:05:52;1.67;;;1.58;;
15443;SDS011;7822;48.146;11.576;2022-08-03T03:08:23;1.48;;;1.38;;
15443;SDS011;7822;48.146;11.576;2022-08-03T03:10:54;2.92;;;1.55;;
15443;SDS011;7822;48.146;11.576;2022-08-03T03:13:24;1.70;;;1.60;;
15443;SDS011;7822;48.146;11.576;2022-08-03T03:15:58;2.08;;;1.58;;
15443;SDS011;7822;48.146;11.576;2022-08-03T03:18:27;1.70;;;1.60;;
15443;SDS011;7822;48.146;11.576;2022-08-03T03:20:57;1.60;;;1.50;;
15443;SDS011;7822;48.146;11.576;2022-08-03T03:23:26;2.40;;;1.63;;
15443;SDS011;7822;48.146;11.576;2022-08-03T03:25:55;2.03;;;1.50;;
15443;SDS011;7822;48.146;11.576;2022-08-03T03:28:24;2.00;;;1.55;;
15443;SDS011;7822;48.146;11.576;2022-08-03T03:30:52;1.40;;;1.30;;
15443;SDS011;7822;48.146;11.576;2022-08-03T03:33:21;2.17;;;1.40;;
15443;SDS011;7822;48.146;11.576;2022-08-03T03:35:50;1.77;;;1.67;;
15443;SDS011;7822;48.146;11.576;2022-08-03T03:38:18;1.70;;;1.60;;
15443;SDS011;7822;48.146;11.576;2022-08-03T03:40:46;1.85;;;1.75;;
15443;SDS011;7822;48.146;11.576;2022-08-03T03:43:15;1.98;;;1.75;;
15443;SDS011;7822;48.146;11.576;2022-08-03T03:45:44;2.53;;;1.52;;
15443;SDS011;7822;48.146;11.576;2022-08-03T03:48:12;1.50;;;1.40;;
15443;SDS011;7822;48.146;11.576;2022-08-03T03:50:42;3.38;;;1.60;;
15443;SDS011;7822;48.146;11.576;2022-08-03T03:53:11;2.72;;;1.65;;
15443;SDS011;7822;48.146;11.576;2022-08-03T03:55:41;1.63;;;1.52;;
15443;SDS011;7822;48.146;11.576;2022-08-03T03:58:28;1.83;;;1.70;;
15443;SDS011;7822;48.146;11.576;2022-08-03T04:00:57;1.98;;;1.70;;
15443;SDS011;7822;48.146;11.576;2022-08-03T04:03:25;2.45;;;1.83;;
15443;SDS011;7822;48.146;11.576;2022-08-03T04:05:54;2.70;;;2.20;;
15443;SDS011;7822;48.146;11.576;2022-08-03T04:08:39;2.20;;;2.00;;
15443;SDS011;7822;48.146;11.576;2022-08-03T04:11:26;3.13;;;1.80;;
15443;SDS011;7822;48.146;11.576;2022-08-03T04:13:58;2.05;;;1.75;;
15443;SDS011;7822;48.146;11.576;2022-08-03T04:16:33;1.98;;;1.67;;
15443;SDS011;7822;48.146;11.576;2022-08-03T04:19:09;1.85;;;1.75;;
15443;SDS011;7822;48.146;11.576;2022-08-03T04:21:49;1.83;;;1.73;;
15443;SDS011;7822;48.146;11.576;2022-08-03T04:24:22;1.90;;;1.70;;
15443;SDS011;7822;48.146;11.576;2022-08-03T04:26:53;1.98;;;1.73;;
15443;SDS011;7822;48.146;11.576;2022-08-03T04:29:23;1.60;;;1.50;;
15443;SDS011;7822;48.146;11.576;2022-08-03T04:31:53;1.77;;;1.67;;
15443;SDS011;7822;48.146;11.576;2022-08-03T04:34:23;2.90;;;1.92;;
15443;SDS011;7822;48.146;11.576;2022-08-03T04:36:55;1.98;;;1.67;;
15443;SDS011;7822;48.146;11.576;2022-08-03T04:39:26;1.98;;;1.83;;
15443;SDS011;7822;48.146;11.576;2022-08-03T04:41:57;2.10;;;1.90;;
15443;SDS011;7822;48.146;11.576;2022-08-03T04:44:34;2.92;;;1.90;;
15443;SDS011;7822;48.146;11.576;2022-08-03T04:47:05;2.38;;;2.15;;
15443;SDS011;7822;48.146;11.576;2022-08-03T04:49:34;2.00;;;1.85;;
15443;SDS011;7822;48.146;11.576;2022-08-03T04:52:04;2.15;;;1.95;;
15443;SDS011;7822;48.146;11.576;2022-08-03T04:54:38;2.65;;;2.20;;
15443;SDS011;7822;48.146;11.576;2022-08-03T04:57:06;2.13;;;1.98;;
15443;SDS011;7822;48.146;11.576;2022-08-03T04:59:34;2.60;;;2.40;;
15443;SDS011;7822;48.146;11.576;2022-08-03T05:02:06;3.10;;;2.40;;
15443;SDS011;7822;48.146;11.576;2022-08-03T05:04:33;2.28;;;2.08;;
15443;SDS011;7822;48.146;11.576;2022-08-03T05:07:04;2.28;;;2.08;;
15443;SDS011;7822;48.146;11.576;2022-08-03T05:09:37;2.85;;;2.50;;
15443;SDS011;7822;48.146;11.576;2022-08-03T05:12:18;4.05;;;2.55;;
15443;SDS011;7822;48.146;11.576;2022-08-03T05:14:45;3.22;;;2.22;;
15443;SDS011;7822;48.146;11.576;2022-08-03T05:17:13;2.20;;;2.10;;
15443;SDS011;7822;48.146;11.576;2022-08-03T05:19:41;2.65;;;1.95;;
15443;SDS011;7822;48.146;11.576;2022-08-03T05:22:10;3.83;;;2.03;;
15443;SDS011;7822;48.146;11.576;2022-08-03T05:24:38;2.10;;;1.90;;
15443;SDS011;7822;48.146;11.576;2022-08-03T05:27:05;3.97;;;2.00;;
15443;SDS011;7822;48.146;11.576;2022-08-03T05:29:33;2.70;;;2.10;;
15443;SDS011;7822;48.146;11.576;2022-08-03T05:32:01;2.80;;;2.00;;
15443;SDS011;7822;48.146;11.576;2022-08-03T05:34:33;3.33;;;1.60;;
15443;SDS011;7822;48.146;11.576;2022-08-03T05:37:01;2.78;;;2.10;;
15443;SDS011;7822;48.146;11.576;2022-08-03T05:39:30;2.38;;;1.83;;
15443;SDS011;7822;48.146;11.576;2022-08-03T05:41:58;2.20;;;2.05;;
15443;SDS011;7822;48.146;11.576;2022-08-03T05:44:27;2.58;;;2.30;;
15443;SDS011;7822;48.146;11.576;2022-08-03T05:46:56;3.65;;;2.00;;
15443;SDS011;7822;48.146;11.576;2022-08-03T05:49:24;4.70;;;2.38;;
15443;SDS011;7822;48.146;11.576;2022-08-03T05:51:52;3.45;;;1.98;;
15443;SDS011;7822;48.146;11.576;2022-08-03T05:54:37;3.47;;;2.35;;
15443;SDS011;7822;48.146;11.576;2022-08-03T05:57:22;6.55;;;2.38;;
15443;SDS011;7822;48.146;11.576;2022-08-03T05:59:50;4.50;;;2.40;;
15443;SDS011;7822;48.146;11.576;2022-08-03T06:02:23;11.93;;;4.93;;
15443;SDS011;7822;48.146;11.576;2022-08-03T06:04:51;5.65;;;3.85;;
15443;SDS011;7822;48.146;11.576;2022-08-03T06:07:28;5.88;;;3.63;;
15443;SDS011;7822;48.146;11.576;2022-08-03T06:09:58;5.53;;;3.63;;
15443;SDS011;7822;48.146;11.576;2022-08-03T06:12:47;4.15;;;2.30;;
15443;SDS011;7822;48.146;11.576;2022-08-03T06:30:33;7.18;;;4.40;;
15443;SDS011;7822;48.146;11.576;2022-08-03T06:33:05;4.72;;;2.72;;
15443;SDS011;7822;48.146;11.576;2022-08-03T06:35:33;3.78;;;3.28;;
15443;SDS011;7822;48.146;11.576;2022-08-03T06:38:02;3.97;;;2.88;;
15443;SDS011;7822;48.146;11.576;2022-08-03T06:40:30;4.85;;;4.25;;
15443;SDS011;7822;48.146;11.576;2022-08-03T06:42:59;4.13;;;3.70;;
15443;SDS011;7822;48.146;11.576;2022-08-03T06:45:29;4.45;;;3.58;;
15443;SDS011;7822;48.146;11.576;2022-08-03T06:48:02;3.47;;;3.13;;
15443;SDS011;7822;48.146;11.576;2022-08-03T06:50:31;4.43;;;2.88;;
15443;SDS011;7822;48.146;11.576;2022-08-03T06:53:00;4.60;;;2.67;;
15443;SDS011;7822;48.146;11.576;2022-08-03T06:55:28;3.78;;;2.42;;
15443;SDS011;7822;48.146;11.576;2022-08-03T06:57:57;2.17;;;1.98;;
15443;SDS011;7822;48.146;11.576;2022-08-03T07:00:28;2.85;;;2.00;;
15443;SDS011;7822;48.146;11.576;2022-08-03T07:02:57;2.13;;;1.92;;
15443;SDS011;7822;48.146;11.576;2022-08-03T07:05:26;3.58;;;2.05;;
15443;SDS011;7822;48.146;11.576;2022-08-03T07:07:55;3.22;;;2.03;;
15443;SDS011;7822;48.146;11.576;2022-08-03T07:10:24;2.13;;;1.92;;
15443;SDS011;7822;48.146;11.576;2022-08-03T07:12:52;2.90;;;1.80;;
15443;SDS011;7822;48.146;11.576;2022-08-03T07:15:22;2.28;;;2.08;;
15443;SDS011;7822;48.146;11.576;2022-08-03T07:18:10;3.67;;;2.40;;
15443;SDS011;7822;48.146;11.576;2022-08-03T07:20:39;3.22;;;2.38;;
15443;SDS011;7822;48.146;11.576;2022-08-03T07:23:07;1.90;;;1.70;;
15443;SDS011;7822;48.146;11.576;2022-08-03T07:25:44;2.40;;;1.90;;
15443;SDS011;7822;48.146;11.576;2022-08-03T07:28:12;4.28;;;2.28;;
15443;SDS011;7822;48.146;11.576;2022-08-03T07:30:40;2.53;;;1.70;;
15443;SDS011;7822;48.146;11.576;2022-08-03T07:33:08;1.90;;;1.50;;
15443;SDS011;7822;48.146;11.576;2022-08-03T07:35:36;1.80;;;1.70;;
15443;SDS011;7822;48.146;11.576;2022-08-03T07:38:06;3.28;;;1.75;;
15443;SDS011;7822;48.146;11.576;2022-08-03T07:40:33;2.72;;;2.30;;
15443;SDS011;7822;48.146;11.576;2022-08-03T07:43:01;4.38;;;2.00;;
15443;SDS011;7822;48.146;11.576;2022-08-03T07:45:30;1.83;;;1.70;;
15443;SDS011;7822;48.146;11.576;2022-08-03T07:47:58;5.03;;;3.10;;
15443;SDS011;7822;48.146;11.576;2022-08-03T07:50:26;3.92;;;2.38;;
15443;SDS011;7822;48.146;11.576;2022-08-03T07:52:55;2.55;;;1.70;;
15443;SDS011;7822;48.146;11.576;2022-08-03T07:55:35;1.95;;;1.70;;
15443;SDS011;7822;48.146;11.576;2022-08-03T07:58:05;1.92;;;1.83;;
15443;SDS011;7822;48.146;11.576;2022-08-03T08:00:35;2.65;;;1.60;;
15443;SDS011;7822;48.146;11.576;2022-08-03T08:03:04;2.28;;;2.08;;
15443;SDS011;7822;48.146;11.576;2022-08-03T08:05:32;1.80;;;1.70;;
15443;SDS011;7822;48.146;11.576;2022-08-03T08:08:01;2.33;;;1.75;;
15443;SDS011;7822;48.146;11.576;2022-08-03T08:10:29;2.97;;;2.10;;
15443;SDS011;7822;48.146;11.576;2022-08-03T08:12:59;2.70;;;1.70;;
15443;SDS011;7822;48.146;11.576;2022-08-03T08:15:27;4.47;;;2.28;;
15443;SDS011;7822;48.146;11.576;2022-08-03T08:17:56;13.52;;;3.58;;
15443;SDS011;7822;48.146;11.576;2022-08-03T08:20:25;11.05;;;4.00;;
15443;SDS011;7822;48.146;11.576;2022-08-03T08:22:57;4.22;;;2.30;;
15443;SDS011;7822;48.146;11.576;2022-08-03T08:25:34;2.33;;;1.67;;
15443;SDS011;7822;48.146;11.576;2022-08-03T08:28:05;1.65;;;1.45;;
15443;SDS011;7822;48.146;11.576;2022-08-03T08:31:08;2.00;;;1.38;;
15443;SDS011;7822;48.146;11.576;2022-08-03T08:33:35;3.33;;;1.70;;
15443;SDS011;7822;48.146;11.576;2022-08-03T08:36:23;3.25;;;1.63;;
15443;SDS011;7822;48.146;11.576;2022-08-03T08:38:51;2.58;;;1.80;;
15443;SDS011;7822;48.146;11.576;2022-08-03T08:41:18;1.63;;;1.52;;
15443;SDS011;7822;48.146;11.576;2022-08-03T08:43:47;2.88;;;1.58;;
15443;SDS011;7822;48.146;11.576;2022-08-03T08:46:15;2.38;;;2.08;;
15443;SDS011;7822;48.146;11.576;2022-08-03T08:48:49;2.13;;;1.70;;
15443;SDS011;7822;48.146;11.576;2022-08-03T08:51:18;1.38;;;1.30;;
15443;SDS011;7822;48.146;11.576;2022-08-03T08:53:48;1.83;;;1.50;;
15443;SDS011;7822;48.146;11.576;2022-08-03T08:56:19;1.50;;;1.40;;
15443;SDS011;7822;48.146;11.576;2022-08-03T08:58:53;1.85;;;1.30;;
15443;SDS011;7822;48.146;11.576;2022-08-03T09:01:24;1.67;;;1.50;;
15443;SDS011;7822;48.146;11.576;2022-08-03T09:03:52;2.13;;;1.50;;
15443;SDS011;7822;48.146;11.576;2022-08-03T09:06:21;1.38;;;1.30;;
15443;SDS011;7822;48.146;11.576;2022-08-03T09:08:49;2.35;;;1.67;;
15443;SDS011;7822;48.146;11.576;2022-08-03T09:11:19;2.33;;;1.70;;
15443;SDS011;7822;48.146;11.576;2022-08-03T09:14:09;4.28;;;3.88;;
15443;SDS011;7822;48.146;11.576;2022-08-03T09:16:57;2.38;;;1.95;;
15443;SDS011;7822;48.146;11.576;2022-08-03T09:19:27;2.15;;;1.60;;
15443;SDS011;7822;48.146;11.576;2022-08-03T09:22:11;1.52;;;1.33;;
15443;SDS011;7822;48.146;11.576;2022-08-03T09:24:53;2.70;;;2.00;;
15443;SDS011;7822;48.146;11.576;2022-08-03T09:27:42;1.77;;;1.67;;
15443;SDS011;7822;48.146;11.576;2022-08-03T09:30:13;1.90;;;1.50;;
15443;SDS011;7822;48.146;11.576;2022-08-03T09:33:00;2.50;;;1.67;;
15443;SDS011;7822;48.146;11.576;2022-08-03T09:35:28;1.90;;;1.67;;
15443;SDS011;7822;48.146;11.576;2022-08-03T09:38:17;1.75;;;1.65;;
15443;SDS011;7822;48.146;11.576;2022-08-03T09:40:49;1.50;;;1.27;;
15443;SDS011;7822;48.146;11.576;2022-08-03T09:43:24;1.80;;;1.50;;
15443;SDS011;7822;48.146;11.576;2022-08-03T09:46:02;1.73;;;1.63;;
15443;SDS011;7822;48.146;11.576;2022-08-03T09:48:32;1.65;;;1.30;;
15443;SDS011;7822;48.146;11.576;2022-08-03T09:51:02;1.60;;;1.50;;
15443;SDS011;7822;48.146;11.576;2022-08-03T09:53:51;3.10;;;1.55;;
15443;SDS011;7822;48.146;11.576;2022-08-03T09:56:36;3.55;;;1.50;;
15443;SDS011;7822;48.146;11.576;2022-08-03T09:59:05;2.58;;;1.50;;
15443;SDS011;7822;48.146;11.576;2022-08-03T10:01:34;2.05;;;1.50;;
15443;SDS011;7822;48.146;11.576;2022-08-03T10:04:10;2.40;;;1.60;;
15443;SDS011;7822;48.146;11.576;2022-08-03T10:06:40;1.38;;;1.27;;
15443;SDS011;7822;48.146;11.576;2022-08-03T10:09:09;1.73;;;1.50;;
15443;SDS011;7822;48.146;11.576;2022-08-03T10:11:39;1.80;;;1.35;;
15443;SDS011;7822;48.146;11.576;2022-08-03T10:14:09;1.58;;;1.35;;
15443;SDS011;7822;48.146;11.576;2022-08-03T10:16:45;1.40;;;1.30;;
15443;SDS011;7822;48.146;11.576;2022-08-03T10:19:14;1.60;;;1.50;;
15443;SDS011;7822;48.146;11.576;2022-08-03T10:21:45;1.27;;;1.17;;
15443;SDS011;7822;48.146;11.576;2022-08-03T10:24:17;1.30;;;1.20;;
15443;SDS011;7822;48.146;11.576;2022-08-03T10:26:51;1.15;;;1.02;;
15443;SDS011;7822;48.146;11.576;2022-08-03T10:29:23;10.65;;;2.95;;
15443;SDS011;7822;48.146;11.576;2022-08-03T10:31:57;21.00;;;3.38;;
15443;SDS011;7822;48.146;11.576;2022-08-03T10:34:26;12.60;;;3.88;;
15443;SDS011;7822;48.146;11.576;2022-08-03T10:37:00;11.52;;;3.28;;
15443;SDS011;7822;48.146;11.576;2022-08-03T10:39:34;8.40;;;2.70;;
15443;SDS011;7822;48.146;11.576;2022-08-03T10:42:02;10.80;;;2.88;;
15443;SDS011;7822;48.146;11.576;2022-08-03T10:44:40;9.50;;;3.05;;
15443;SDS011;7822;48.146;11.576;2022-08-03T10:47:10;7.22;;;2.13;;
15443;SDS011;7822;48.146;11.576;2022-08-03T10:49:38;3.78;;;2.08;;
15443;SDS011;7822;48.146;11.576;2022-08-03T10:52:08;3.58;;;2.00;;
15443;SDS011;7822;48.146;11.576;2022-08-03T10:54:56;6.38;;;1.90;;
15443;SDS011;7822;48.146;11.576;2022-08-03T10:57:44;4.40;;;2.20;;
15443;SDS011;7822;48.146;11.576;2022-08-03T11:00:15;3.33;;;1.55;;
15443;SDS011;7822;48.146;11.576;2022-08-03T11:03:04;3.95;;;2.10;;
15443;SDS011;7822;48.146;11.576;2022-08-03T11:05:37;3.25;;;1.50;;
15443;SDS011;7822;48.146;11.576;2022-08-03T11:08:16;1.88;;;1.42;;
15443;SDS011;7822;48.146;11.576;2022-08-03T11:10:53;4.15;;;1.60;;
15443;SDS011;7822;48.146;11.576;2022-08-03T11:13:24;2.25;;;1.50;;
15443;SDS011;7822;48.146;11.576;2022-08-03T11:15:56;3.95;;;1.60;;
15443;SDS011;7822;48.146;11.576;2022-08-03T11:18:33;1.83;;;1.27;;
15443;SDS011;7822;48.146;11.576;2022-08-03T11:21:01;2.65;;;1.50;;
15443;SDS011;7822;48.146;11.576;2022-08-03T11:23:39;4.00;;;1.48;;
15443;SDS011;7822;48.146;11.576;2022-08-03T11:26:28;2.25;;;1.27;;
15443;SDS011;7822;48.146;11.576;2022-08-03T11:29:06;2.42;;;1.08;;
15443;SDS011;7822;48.146;11.576;2022-08-03T11:31:53;1.80;;;1.35;;
15443;SDS011;7822;48.146;11.576;2022-08-03T11:34:23;1.42;;;1.15;;
15443;SDS011;7822;48.146;11.576;2022-08-03T11:39:50;1.60;;;1.48;;
15443;SDS011;7822;48.146;11.576;2022-08-03T11:45:07;1.17;;;1.08;;
15443;SDS011;7822;48.146;11.576;2022-08-03T11:47:36;1.77;;;1.10;;
15443;SDS011;7822;48.146;11.576;2022-08-03T11:50:18;2.60;;;1.30;;
15443;SDS011;7822;48.146;11.576;2022-08-03T11:52:47;1.48;;;1.27;;
15443;SDS011;7822;48.146;11.576;2022-08-03T11:55:16;2.03;;;1.10;;
15443;SDS011;7822;48.146;11.576;2022-08-03T11:57:45;1.70;;;1.10;;
15443;SDS011;7822;48.146;11.576;2022-08-03T12:00:34;2.10;;;1.00;;
15443;SDS011;7822;48.146;11.576;2022-08-03T12:03:03;1.38;;;0.90;;
15443;SDS011;7822;48.146;11.576;2022-08-03T12:05:35;1.00;;;1.00;;
15443;SDS011;7822;48.146;11.576;2022-08-03T12:08:04;1.92;;;1.10;;
15443;SDS011;7822;48.146;11.576;2022-08-03T12:10:33;1.05;;;0.93;;
15443;SDS011;7822;48.146;11.576;2022-08-03T12:13:01;1.52;;;1.10;;
15443;SDS011;7822;48.146;11.576;2022-08-03T12:15:54;2.20;;;1.20;;
15443;SDS011;7822;48.146;11.576;2022-08-03T12:18:24;0.75;;;0.75;;
15443;SDS011;7822;48.146;11.576;2022-08-03T12:21:02;1.75;;;1.00;;
15443;SDS011;7822;48.146;11.576;2022-08-03T12:23:31;2.13;;;1.13;;
15443;SDS011;7822;48.146;11.576;2022-08-03T12:26:03;2.40;;;1.02;;
15443;SDS011;7822;48.146;11.576;2022-08-03T12:28:32;1.30;;;1.20;;
15443;SDS011;7822;48.146;11.576;2022-08-03T12:31:04;1.75;;;1.08;;
15443;SDS011;7822;48.146;11.576;2022-08-03T12:36:26;1.25;;;1.10;;
15443;SDS011;7822;48.146;11.576;2022-08-03T12:38:55;1.00;;;1.00;;
15443;SDS011;7822;48.146;11.576;2022-08-03T12:41:28;1.20;;;1.10;;
15443;SDS011;7822;48.146;11.576;2022-08-03T12:43:59;1.20;;;1.10;;
15443;SDS011;7822;48.146;11.576;2022-08-03T12:46:29;1.20;;;1.00;;
15443;SDS011;7822;48.146;11.576;2022-08-03T12:49:02;1.00;;;0.90;;
15443;SDS011;7822;48.146;11.576;2022-08-03T12:51:35;0.85;;;0.85;;
15443;SDS011;7822;48.146;11.576;2022-08-03T12:54:05;1.10;;;0.98;;
15443;SDS011;7822;48.146;11.576;2022-08-03T12:56:33;2.17;;;0.90;;
15443;SDS011;7822;48.146;11.576;2022-08-03T13:02:00;1.67;;;0.90;;
15443;SDS011;7822;48.146;11.576;2022-08-03T13:04:30;1.95;;;1.00;;
15443;SDS011;7822;48.146;11.576;2022-08-03T13:07:01;1.35;;;1.13;;
15443;SDS011;7822;48.146;11.576;2022-08-03T13:09:39;1.33;;;1.23;;
15443;SDS011;7822;48.146;11.576;2022-08-03T13:12:08;1.40;;;1.20;;
15443;SDS011;7822;48.146;11.576;2022-08-03T13:14:38;1.50;;;1.40;;
15443;SDS011;7822;48.146;11.576;2022-08-03T13:17:05;1.02;;;1.02;;
15443;SDS011;7822;48.146;11.576;2022-08-03T13:19:34;1.60;;;1.50;;
15443;SDS011;7822;48.146;11.576;2022-08-03T13:22:11;1.88;;;1.33;;
15443;SDS011;7822;48.146;11.576;2022-08-03T13:24:39;1.40;;;1.30;;
15443;SDS011;7822;48.146;11.576;2022-08-03T13:27:07;2.05;;;1.27;;
15443;SDS011;7822;48.146;11.576;2022-08-03T13:29:56;1.40;;;1.30;;
15443;SDS011;7822;48.146;11.576;2022-08-03T13:32:24;1.48;;;1.38;;
15443;SDS011;7822;48.146;11.576;2022-08-03T13:34:52;1.40;;;1.30;;
15443;SDS011;7822;48.146;11.576;2022-08-03T13:37:21;2.28;;;1.30;;
15443;SDS011;7822;48.146;11.576;2022-08-03T13:39:49;1.48;;;1.33;;
15443;SDS011;7822;48.146;11.576;2022-08-03T13:42:26;1.73;;;1.40;;
15443;SDS011;7822;48.146;11.576;2022-08-03T13:44:54;1.60;;;1.35;;
15443;SDS011;7822;48.146;11.576;2022-08-03T13:47:22;1.55;;;1.05;;
15443;SDS011;7822;48.146;11.576;2022-08-03T13:49:50;1.27;;;1.20;;
15443;SDS011;7822;48.146;11.576;2022-08-03T13:52:28;2.53;;;1.50;;
15443;SDS011;7822;48.146;11.576;2022-08-03T13:54:56;1.17;;;1.17;;
15443;SDS011;7822;48.146;11.576;2022-08-03T13:57:25;3.92;;;1.40;;
15443;SDS011;7822;48.146;11.576;2022-08-03T14:00:13;1.38;;;1.27;;
15443;SDS011;7822;48.146;11.576;2022-08-03T14:02:54;1.23;;;1.20;;
15443;SDS011;7822;48.146;11.576;2022-08-03T14:05:30;1.60;;;1.23;;
15443;SDS011;7822;48.146;11.576;2022-08-03T14:08:00;1.95;;;1.30;;
15443;SDS011;7822;48.146;11.576;2022-08-03T14:10:31;1.40;;;1.30;;
15443;SDS011;7822;48.146;11.576;2022-08-03T14:13:03;1.20;;;1.10;;
15443;SDS011;7822;48.146;11.576;2022-08-03T14:15:31;1.55;;;1.45;;
15443;SDS011;7822;48.146;11.576;2022-08-03T14:18:03;1.80;;;1.63;;
15443;SDS011;7822;48.146;11.576;2022-08-03T14:20:31;1.42;;;1.33;;
15443;SDS011;7822;48.146;11.576;2022-08-03T14:23:04;1.30;;;1.20;;
15443;SDS011;7822;48.146;11.576;2022-08-03T14:25:32;2.25;;;1.30;;
15443;SDS011;7822;48.146;11.576;2022-08-03T14:28:15;1.30;;;1.20;;
15443;SDS011;7822;48.146;11.576;2022-08-03T14:30:43;1.23;;;1.13;;
15443;SDS011;7822;48.146;11.576;2022-08-03T14:33:11;2.20;;;1.30;;
15443;SDS011;7822;48.146;11.576;2022-08-03T14:35:39;1.63;;;1.20;;
15443;SDS011;7822;48.146;11.576;2022-08-03T14:38:08;1.48;;;1.38;;
15443;SDS011;7822;48.146;11.576;2022-08-03T14:40:36;1.85;;;1.30;;
15443;SDS011;7822;48.146;11.576;2022-08-03T14:43:04;2.78;;;1.30;;
15443;SDS011;7822;48.146;11.576;2022-08-03T14:45:31;2.17;;;1.58;;
15443;SDS011;7822;48.146;11.576;2022-08-03T14:48:00;1.25;;;1.15;;
15443;SDS011;7822;48.146;11.576;2022-08-03T14:50:47;1.52;;;1.30;;
15443;SDS011;7822;48.146;11.576;2022-08-03T14:53:18;1.90;;;1.17;;
15443;SDS011;7822;48.146;11.576;2022-08-03T14:55:46;3.95;;;1.90;;
15443;SDS011;7822;48.146;11.576;2022-08-03T14:58:17;1.52;;;1.42;;
15443;SDS011;7822;48.146;11.576;2022-08-03T15:00:47;1.50;;;1.33;;
15443;SDS011;7822;48.146;11.576;2022-08-03T15:03:16;2.28;;;1.55;;
15443;SDS011;7822;48.146;11.576;2022-08-03T15:05:45;1.88;;;1.20;;
15443;SDS011;7822;48.146;11.576;2022-08-03T15:08:13;1.20;;;0.90;;
15443;SDS011;7822;48.146;11.576;2022-08-03T15:10:42;1.58;;;1.48;;
15443;SDS011;7822;48.146;11.576;2022-08-03T15:13:11;2.60;;;2.38;;
15443;SDS011;7822;48.146;11.576;2022-08-03T15:15:38;3.20;;;2.90;;
15443;SDS011;7822;48.146;11.576;2022-08-03T15:18:07;2.78;;;2.58;;
15443;SDS011;7822;48.146;11.576;2022-08-03T15:20:35;5.57;;;3.20;;
15443;SDS011;7822;48.146;11.576;2022-08-03T15:23:12;12.43;;;11.10;;
15443;SDS011;7822;48.146;11.576;2022-08-03T15:25:41;8.05;;;6.55;;
15443;SDS011;7822;48.146;11.576;2022-08-03T15:28:30;24.58;;;19.30;;
15443;SDS011;7822;48.146;11.576;2022-08-03T15:30:58;23.00;;;17.55;;
15443;SDS011;7822;48.146;11.576;2022-08-03T15:33:26;7.75;;;6.95;;
15443;SDS011;7822;48.146;11.576;2022-08-03T15:35:54;7.88;;;4.93;;
15443;SDS011;7822;48.146;11.576;2022-08-03T15:38:23;6.97;;;4.72;;
15443;SDS011;7822;48.146;11.576;2022-08-03T15:40:53;3.33;;;2.33;;
15443;SDS011;7822;48.146;11.576;2022-08-03T15:43:20;2.42;;;2.20;;